sensor_id;sensor_type;location;lat;lon;timestamp;temperature;humidity
8832;DHT22;4452;50.756;4.472;2024-02-26T00:01:54;5.90;99.90
8832;DHT22;4452;50.756;4.472;2024-02-26T00:04:19;6.10;99.90
8832;DHT22;4452;50.756;4.472;2024-02-26T00:06:46;6.40;99.90
8832;DHT22;4452;50.756;4.472;2024-02-26T00:09:12;5.90;99.90
8832;DHT22;4452;50.756;4.472;2024-02-26T00:11:38;5.90;99.90
8832;DHT22;4452;50.756;4.472;2024-02-26T00:14:04;6.10;99.90
8832;DHT22;4452;50.756;4.472;2024-02-26T00:16:30;6.10;99.90
8832;DHT22;4452;50.756;4.472;2024-02-26T00:18:56;6.20;99.90
8832;DHT22;4452;50.756;4.472;2024-02-26T00:21:21;6.20;99.90
8832;DHT22;4452;50.756;4.472;2024-02-26T00:23:48;5.90;99.90
8832;DHT22;4452;50.756;4.472;2024-02-26T00:26:14;6.30;99.90
8832;DHT22;4452;50.756;4.472;2024-02-26T00:28:40;5.80;99.90
8832;DHT22;4452;50.756;4.472;2024-02-26T00:31:06;5.90;99.90
8832;DHT22;4452;50.756;4.472;2024-02-26T00:33:32;5.90;99.90
8832;DHT22;4452;50.756;4.472;2024-02-26T00:35:57;5.90;99.90
8832;DHT22;4452;50.756;4.472;2024-02-26T00:38:23;5.80;99.90
8832;DHT22;4452;50.756;4.472;2024-02-26T00:40:48;5.90;99.90
8832;DHT22;4452;50.756;4.472;2024-02-26T00:43:14;6.30;99.90
8832;DHT22;4452;50.756;4.472;2024-02-26T00:45:40;5.80;99.90
8832;DHT22;4452;50.756;4.472;2024-02-26T00:48:05;6.00;99.90
8832;DHT22;4452;50.756;4.472;2024-02-26T00:50:33;5.80;99.90
8832;DHT22;4452;50.756;4.472;2024-02-26T00:52:59;5.80;99.90
8832;DHT22;4452;50.756;4.472;2024-02-26T00:55:24;5.80;99.90
8832;DHT22;4452;50.756;4.472;2024-02-26T00:57:50;6.00;99.90
8832;DHT22;4452;50.756;4.472;2024-02-26T01:00:16;5.90;99.90
8832;DHT22;4452;50.756;4.472;2024-02-26T01:02:42;5.80;99.90
8832;DHT22;4452;50.756;4.472;2024-02-26T01:05:08;6.00;99.90
8832;DHT22;4452;50.756;4.472;2024-02-26T01:07:37;5.80;99.90
8832;DHT22;4452;50.756;4.472;2024-02-26T01:10:03;5.80;99.90
8832;DHT22;4452;50.756;4.472;2024-02-26T01:12:29;5.80;99.90
8832;DHT22;4452;50.756;4.472;2024-02-26T01:14:55;5.80;99.90
8832;DHT22;4452;50.756;4.472;2024-02-26T01:17:21;5.90;99.90
8832;DHT22;4452;50.756;4.472;2024-02-26T01:19:46;6.00;99.90
8832;DHT22;4452;50.756;4.472;2024-02-26T01:22:12;5.70;99.90
8832;DHT22;4452;50.756;4.472;2024-02-26T01:24:38;5.80;99.90
8832;DHT22;4452;50.756;4.472;2024-02-26T01:27:04;5.80;99.90
8832;DHT22;4452;50.756;4.472;2024-02-26T01:29:30;5.70;99.90
8832;DHT22;4452;50.756;4.472;2024-02-26T01:31:56;5.70;99.90
8832;DHT22;4452;50.756;4.472;2024-02-26T01:34:21;5.70;99.90
8832;DHT22;4452;50.756;4.472;2024-02-26T01:36:47;5.80;99.90
8832;DHT22;4452;50.756;4.472;2024-02-26T01:39:13;5.90;99.90
8832;DHT22;4452;50.756;4.472;2024-02-26T01:41:39;6.20;99.90
8832;DHT22;4452;50.756;4.472;2024-02-26T01:44:05;6.20;99.90
8832;DHT22;4452;50.756;4.472;2024-02-26T01:46:33;6.20;99.90
8832;DHT22;4452;50.756;4.472;2024-02-26T01:49:00;5.70;99.90
8832;DHT22;4452;50.756;4.472;2024-02-26T01:51:27;5.70;99.90
8832;DHT22;4452;50.756;4.472;2024-02-26T01:53:53;6.10;99.90
8832;DHT22;4452;50.756;4.472;2024-02-26T01:56:19;5.80;99.90
8832;DHT22;4452;50.756;4.472;2024-02-26T01:58:46;5.70;99.90
8832;DHT22;4452;50.756;4.472;2024-02-26T02:01:15;6.00;99.90
8832;DHT22;4452;50.756;4.472;2024-02-26T02:03:41;6.00;99.90
8832;DHT22;4452;50.756;4.472;2024-02-26T02:06:08;5.90;99.90
8832;DHT22;4452;50.756;4.472;2024-02-26T02:08:34;6.10;99.90
8832;DHT22;4452;50.756;4.472;2024-02-26T02:11:00;6.10;99.90
8832;DHT22;4452;50.756;4.472;2024-02-26T02:13:26;6.10;99.90
8832;DHT22;4452;50.756;4.472;2024-02-26T02:15:52;5.60;99.90
8832;DHT22;4452;50.756;4.472;2024-02-26T02:18:19;6.10;99.90
8832;DHT22;4452;50.756;4.472;2024-02-26T02:20:44;5.70;99.90
8832;DHT22;4452;50.756;4.472;2024-02-26T02:23:10;6.10;99.90
8832;DHT22;4452;50.756;4.472;2024-02-26T02:25:36;5.70;99.90
8832;DHT22;4452;50.756;4.472;2024-02-26T02:28:01;5.60;99.90
8832;DHT22;4452;50.756;4.472;2024-02-26T02:30:29;5.80;99.90
8832;DHT22;4452;50.756;4.472;2024-02-26T02:32:55;5.70;99.90
8832;DHT22;4452;50.756;4.472;2024-02-26T02:35:22;5.70;99.90
8832;DHT22;4452;50.756;4.472;2024-02-26T02:37:51;6.10;99.90
8832;DHT22;4452;50.756;4.472;2024-02-26T02:40:17;6.00;99.90
8832;DHT22;4452;50.756;4.472;2024-02-26T02:42:42;5.70;99.90
8832;DHT22;4452;50.756;4.472;2024-02-26T02:45:08;5.70;99.90
8832;DHT22;4452;50.756;4.472;2024-02-26T02:47:37;5.60;99.90
8832;DHT22;4452;50.756;4.472;2024-02-26T02:50:04;6.10;99.90
8832;DHT22;4452;50.756;4.472;2024-02-26T02:52:29;5.70;99.90
8832;DHT22;4452;50.756;4.472;2024-02-26T02:54:55;6.00;99.90
8832;DHT22;4452;50.756;4.472;2024-02-26T02:57:21;5.70;99.90
8832;DHT22;4452;50.756;4.472;2024-02-26T02:59:47;5.60;99.90
8832;DHT22;4452;50.756;4.472;2024-02-26T03:02:12;5.60;99.90
8832;DHT22;4452;50.756;4.472;2024-02-26T03:04:38;5.60;99.90
8832;DHT22;4452;50.756;4.472;2024-02-26T03:07:04;5.60;99.90
8832;DHT22;4452;50.756;4.472;2024-02-26T03:09:29;5.60;99.90
8832;DHT22;4452;50.756;4.472;2024-02-26T03:11:55;5.80;99.90
8832;DHT22;4452;50.756;4.472;2024-02-26T03:14:20;5.60;99.90
8832;DHT22;4452;50.756;4.472;2024-02-26T03:16:46;5.60;99.90
8832;DHT22;4452;50.756;4.472;2024-02-26T03:19:14;5.60;99.90
8832;DHT22;4452;50.756;4.472;2024-02-26T03:21:41;5.60;99.90
8832;DHT22;4452;50.756;4.472;2024-02-26T03:24:07;5.60;99.90
8832;DHT22;4452;50.756;4.472;2024-02-26T03:26:36;5.70;99.90
8832;DHT22;4452;50.756;4.472;2024-02-26T03:29:02;5.60;99.90
8832;DHT22;4452;50.756;4.472;2024-02-26T03:31:28;5.60;99.90
8832;DHT22;4452;50.756;4.472;2024-02-26T03:33:54;5.60;99.90
8832;DHT22;4452;50.756;4.472;2024-02-26T03:36:19;5.60;99.90
8832;DHT22;4452;50.756;4.472;2024-02-26T03:38:47;5.60;99.90
8832;DHT22;4452;50.756;4.472;2024-02-26T03:41:13;6.00;99.90
8832;DHT22;4452;50.756;4.472;2024-02-26T03:43:38;5.70;99.90
8832;DHT22;4452;50.756;4.472;2024-02-26T03:46:07;5.90;99.90
8832;DHT22;4452;50.756;4.472;2024-02-26T03:48:33;5.50;99.90
8832;DHT22;4452;50.756;4.472;2024-02-26T03:50:58;5.50;99.90
8832;DHT22;4452;50.756;4.472;2024-02-26T03:53:24;5.60;99.90
8832;DHT22;4452;50.756;4.472;2024-02-26T03:55:49;5.60;99.90
8832;DHT22;4452;50.756;4.472;2024-02-26T03:58:17;5.50;99.90
8832;DHT22;4452;50.756;4.472;2024-02-26T04:00:43;5.70;99.90
8832;DHT22;4452;50.756;4.472;2024-02-26T04:03:09;6.00;99.90
8832;DHT22;4452;50.756;4.472;2024-02-26T04:05:35;5.60;99.90
8832;DHT22;4452;50.756;4.472;2024-02-26T04:08:00;5.50;99.90
8832;DHT22;4452;50.756;4.472;2024-02-26T04:10:26;5.50;99.90
8832;DHT22;4452;50.756;4.472;2024-02-26T04:12:52;5.50;99.90
8832;DHT22;4452;50.756;4.472;2024-02-26T04:15:17;5.80;99.90
8832;DHT22;4452;50.756;4.472;2024-02-26T04:17:43;5.60;99.90
8832;DHT22;4452;50.756;4.472;2024-02-26T04:20:14;5.90;99.90
8832;DHT22;4452;50.756;4.472;2024-02-26T04:22:40;5.50;99.90
8832;DHT22;4452;50.756;4.472;2024-02-26T04:25:05;5.50;99.90
8832;DHT22;4452;50.756;4.472;2024-02-26T04:27:31;5.50;99.90
8832;DHT22;4452;50.756;4.472;2024-02-26T04:29:57;5.50;99.90
8832;DHT22;4452;50.756;4.472;2024-02-26T04:32:22;5.60;99.90
8832;DHT22;4452;50.756;4.472;2024-02-26T04:34:48;5.70;99.90
8832;DHT22;4452;50.756;4.472;2024-02-26T04:37:14;5.90;99.90
8832;DHT22;4452;50.756;4.472;2024-02-26T04:39:39;5.60;99.90
8832;DHT22;4452;50.756;4.472;2024-02-26T04:42:05;5.80;99.90
8832;DHT22;4452;50.756;4.472;2024-02-26T04:44:30;5.50;99.90
8832;DHT22;4452;50.756;4.472;2024-02-26T04:46:56;5.80;99.90
8832;DHT22;4452;50.756;4.472;2024-02-26T04:49:22;5.50;99.90
8832;DHT22;4452;50.756;4.472;2024-02-26T04:51:47;5.80;99.90
8832;DHT22;4452;50.756;4.472;2024-02-26T04:54:13;5.70;99.90
8832;DHT22;4452;50.756;4.472;2024-02-26T04:56:39;5.60;99.90
8832;DHT22;4452;50.756;4.472;2024-02-26T04:59:05;5.80;99.90
8832;DHT22;4452;50.756;4.472;2024-02-26T05:01:30;5.90;99.90
8832;DHT22;4452;50.756;4.472;2024-02-26T05:03:56;5.80;99.90
8832;DHT22;4452;50.756;4.472;2024-02-26T05:06:22;5.60;99.90
8832;DHT22;4452;50.756;4.472;2024-02-26T05:08:47;5.50;99.90
8832;DHT22;4452;50.756;4.472;2024-02-26T05:11:13;5.90;99.90
8832;DHT22;4452;50.756;4.472;2024-02-26T05:13:38;5.90;99.90
8832;DHT22;4452;50.756;4.472;2024-02-26T05:16:04;6.00;99.90
8832;DHT22;4452;50.756;4.472;2024-02-26T05:18:30;5.50;99.90
8832;DHT22;4452;50.756;4.472;2024-02-26T05:20:56;5.80;99.90
8832;DHT22;4452;50.756;4.472;2024-02-26T05:23:22;5.50;99.90
8832;DHT22;4452;50.756;4.472;2024-02-26T05:25:48;5.60;99.90
8832;DHT22;4452;50.756;4.472;2024-02-26T05:28:14;5.90;99.90
8832;DHT22;4452;50.756;4.472;2024-02-26T05:30:42;5.50;99.90
8832;DHT22;4452;50.756;4.472;2024-02-26T05:33:07;5.80;99.90
8832;DHT22;4452;50.756;4.472;2024-02-26T05:35:33;5.80;99.90
8832;DHT22;4452;50.756;4.472;2024-02-26T05:37:59;5.80;99.90
8832;DHT22;4452;50.756;4.472;2024-02-26T05:40:24;5.80;99.90
8832;DHT22;4452;50.756;4.472;2024-02-26T05:42:50;5.40;99.90
8832;DHT22;4452;50.756;4.472;2024-02-26T05:45:16;5.50;99.90
8832;DHT22;4452;50.756;4.472;2024-02-26T05:47:42;5.40;99.90
8832;DHT22;4452;50.756;4.472;2024-02-26T05:50:10;5.80;99.90
8832;DHT22;4452;50.756;4.472;2024-02-26T05:52:40;5.40;99.90
8832;DHT22;4452;50.756;4.472;2024-02-26T05:55:06;5.70;99.90
8832;DHT22;4452;50.756;4.472;2024-02-26T05:57:33;5.40;99.90
8832;DHT22;4452;50.756;4.472;2024-02-26T05:59:59;5.40;99.90
8832;DHT22;4452;50.756;4.472;2024-02-26T06:02:32;5.90;99.90
8832;DHT22;4452;50.756;4.472;2024-02-26T06:04:58;5.50;99.90
8832;DHT22;4452;50.756;4.472;2024-02-26T06:07:24;5.60;99.90
8832;DHT22;4452;50.756;4.472;2024-02-26T06:09:51;5.50;99.90
8832;DHT22;4452;50.756;4.472;2024-02-26T06:12:16;5.40;99.90
8832;DHT22;4452;50.756;4.472;2024-02-26T06:14:43;5.50;99.90
8832;DHT22;4452;50.756;4.472;2024-02-26T06:17:08;5.50;99.90
8832;DHT22;4452;50.756;4.472;2024-02-26T06:19:34;5.50;99.90
8832;DHT22;4452;50.756;4.472;2024-02-26T06:22:00;5.40;99.90
8832;DHT22;4452;50.756;4.472;2024-02-26T06:24:25;5.70;99.90
8832;DHT22;4452;50.756;4.472;2024-02-26T06:26:52;5.50;99.90
8832;DHT22;4452;50.756;4.472;2024-02-26T06:29:17;5.50;99.90
8832;DHT22;4452;50.756;4.472;2024-02-26T06:31:43;5.70;99.90
8832;DHT22;4452;50.756;4.472;2024-02-26T06:34:09;5.80;99.90
8832;DHT22;4452;50.756;4.472;2024-02-26T06:36:34;5.50;99.90
8832;DHT22;4452;50.756;4.472;2024-02-26T06:39:00;5.50;99.90
8832;DHT22;4452;50.756;4.472;2024-02-26T06:41:26;5.50;99.90
8832;DHT22;4452;50.756;4.472;2024-02-26T06:43:56;5.50;99.90
8832;DHT22;4452;50.756;4.472;2024-02-26T06:46:25;5.30;99.90
8832;DHT22;4452;50.756;4.472;2024-02-26T06:48:51;5.60;99.90
8832;DHT22;4452;50.756;4.472;2024-02-26T06:51:17;5.60;99.90
8832;DHT22;4452;50.756;4.472;2024-02-26T06:53:43;5.50;99.90
8832;DHT22;4452;50.756;4.472;2024-02-26T06:56:09;5.40;99.90
8832;DHT22;4452;50.756;4.472;2024-02-26T06:58:34;5.80;99.90
8832;DHT22;4452;50.756;4.472;2024-02-26T07:01:00;5.60;99.90
8832;DHT22;4452;50.756;4.472;2024-02-26T07:03:26;5.40;99.90
8832;DHT22;4452;50.756;4.472;2024-02-26T07:05:51;5.50;99.90
8832;DHT22;4452;50.756;4.472;2024-02-26T07:08:17;5.50;99.90
8832;DHT22;4452;50.756;4.472;2024-02-26T07:10:43;5.60;99.90
8832;DHT22;4452;50.756;4.472;2024-02-26T07:13:09;5.30;99.90
8832;DHT22;4452;50.756;4.472;2024-02-26T07:15:35;5.80;99.90
8832;DHT22;4452;50.756;4.472;2024-02-26T07:18:00;5.70;99.90
8832;DHT22;4452;50.756;4.472;2024-02-26T07:20:29;5.60;99.90
8832;DHT22;4452;50.756;4.472;2024-02-26T07:22:56;5.70;99.90
8832;DHT22;4452;50.756;4.472;2024-02-26T07:25:22;5.40;99.90
8832;DHT22;4452;50.756;4.472;2024-02-26T07:27:47;5.50;99.90
8832;DHT22;4452;50.756;4.472;2024-02-26T07:30:13;5.80;99.90
8832;DHT22;4452;50.756;4.472;2024-02-26T07:32:40;5.40;99.90
8832;DHT22;4452;50.756;4.472;2024-02-26T07:35:05;5.40;99.90
8832;DHT22;4452;50.756;4.472;2024-02-26T07:37:31;5.40;99.90
8832;DHT22;4452;50.756;4.472;2024-02-26T07:39:57;5.70;99.90
8832;DHT22;4452;50.756;4.472;2024-02-26T07:42:22;5.60;99.90
8832;DHT22;4452;50.756;4.472;2024-02-26T07:44:48;5.50;99.90
8832;DHT22;4452;50.756;4.472;2024-02-26T07:47:14;5.30;99.90
8832;DHT22;4452;50.756;4.472;2024-02-26T07:49:40;5.30;99.90
8832;DHT22;4452;50.756;4.472;2024-02-26T07:52:06;5.20;99.90
8832;DHT22;4452;50.756;4.472;2024-02-26T07:54:31;5.30;99.90
8832;DHT22;4452;50.756;4.472;2024-02-26T07:56:57;5.30;99.90
8832;DHT22;4452;50.756;4.472;2024-02-26T07:59:23;5.30;99.90
8832;DHT22;4452;50.756;4.472;2024-02-26T08:01:52;5.60;99.90
8832;DHT22;4452;50.756;4.472;2024-02-26T08:04:18;5.30;99.90
8832;DHT22;4452;50.756;4.472;2024-02-26T08:06:44;5.30;99.90
8832;DHT22;4452;50.756;4.472;2024-02-26T08:09:09;5.50;99.90
8832;DHT22;4452;50.756;4.472;2024-02-26T08:11:35;5.30;99.90
8832;DHT22;4452;50.756;4.472;2024-02-26T08:14:01;5.30;99.90
8832;DHT22;4452;50.756;4.472;2024-02-26T08:16:26;5.30;99.90
8832;DHT22;4452;50.756;4.472;2024-02-26T08:18:52;5.40;99.90
8832;DHT22;4452;50.756;4.472;2024-02-26T08:21:18;5.30;99.90
8832;DHT22;4452;50.756;4.472;2024-02-26T08:23:44;5.40;99.90
8832;DHT22;4452;50.756;4.472;2024-02-26T08:26:09;5.40;99.90
8832;DHT22;4452;50.756;4.472;2024-02-26T08:28:37;5.30;99.90
8832;DHT22;4452;50.756;4.472;2024-02-26T08:31:03;5.30;99.90
8832;DHT22;4452;50.756;4.472;2024-02-26T08:33:29;5.30;99.90
8832;DHT22;4452;50.756;4.472;2024-02-26T08:35:55;5.80;99.90
8832;DHT22;4452;50.756;4.472;2024-02-26T08:38:21;5.40;99.90
8832;DHT22;4452;50.756;4.472;2024-02-26T08:40:46;5.40;99.90
8832;DHT22;4452;50.756;4.472;2024-02-26T08:43:12;5.30;99.90
8832;DHT22;4452;50.756;4.472;2024-02-26T08:45:37;5.40;99.90
8832;DHT22;4452;50.756;4.472;2024-02-26T08:48:03;5.70;99.90
8832;DHT22;4452;50.756;4.472;2024-02-26T08:50:29;5.40;99.90
8832;DHT22;4452;50.756;4.472;2024-02-26T08:52:54;5.80;99.90
8832;DHT22;4452;50.756;4.472;2024-02-26T08:55:21;5.80;99.90
8832;DHT22;4452;50.756;4.472;2024-02-26T08:57:52;5.40;99.90
8832;DHT22;4452;50.756;4.472;2024-02-26T09:00:20;5.40;99.90
8832;DHT22;4452;50.756;4.472;2024-02-26T09:02:48;5.40;99.90
8832;DHT22;4452;50.756;4.472;2024-02-26T09:05:15;5.40;99.90
8832;DHT22;4452;50.756;4.472;2024-02-26T09:07:42;5.40;99.90
8832;DHT22;4452;50.756;4.472;2024-02-26T09:10:08;5.60;99.90
8832;DHT22;4452;50.756;4.472;2024-02-26T09:12:36;5.40;99.90
8832;DHT22;4452;50.756;4.472;2024-02-26T09:15:03;5.40;99.90
8832;DHT22;4452;50.756;4.472;2024-02-26T09:17:31;5.40;99.90
8832;DHT22;4452;50.756;4.472;2024-02-26T09:19:59;5.40;99.90
8832;DHT22;4452;50.756;4.472;2024-02-26T09:22:27;5.40;99.90
8832;DHT22;4452;50.756;4.472;2024-02-26T09:24:55;5.40;99.90
8832;DHT22;4452;50.756;4.472;2024-02-26T09:27:23;5.40;99.90
8832;DHT22;4452;50.756;4.472;2024-02-26T09:29:52;5.50;99.90
8832;DHT22;4452;50.756;4.472;2024-02-26T09:32:20;5.50;99.90
8832;DHT22;4452;50.756;4.472;2024-02-26T09:34:48;5.50;99.90
8832;DHT22;4452;50.756;4.472;2024-02-26T09:37:16;5.50;99.90
8832;DHT22;4452;50.756;4.472;2024-02-26T09:39:44;5.50;99.90
8832;DHT22;4452;50.756;4.472;2024-02-26T09:42:13;5.50;99.90
8832;DHT22;4452;50.756;4.472;2024-02-26T09:44:41;5.50;99.90
8832;DHT22;4452;50.756;4.472;2024-02-26T09:47:11;5.70;99.90
8832;DHT22;4452;50.756;4.472;2024-02-26T09:49:37;5.60;99.90
8832;DHT22;4452;50.756;4.472;2024-02-26T09:52:05;5.50;99.90
8832;DHT22;4452;50.756;4.472;2024-02-26T09:54:32;5.50;99.90
8832;DHT22;4452;50.756;4.472;2024-02-26T09:57:00;5.50;99.90
8832;DHT22;4452;50.756;4.472;2024-02-26T09:59:28;5.80;99.90
8832;DHT22;4452;50.756;4.472;2024-02-26T10:01:56;5.60;99.90
8832;DHT22;4452;50.756;4.472;2024-02-26T10:04:24;5.80;99.90
8832;DHT22;4452;50.756;4.472;2024-02-26T10:06:51;6.00;99.90
8832;DHT22;4452;50.756;4.472;2024-02-26T10:09:18;6.00;99.90
8832;DHT22;4452;50.756;4.472;2024-02-26T10:11:45;5.60;99.90
8832;DHT22;4452;50.756;4.472;2024-02-26T10:14:14;5.60;99.90
8832;DHT22;4452;50.756;4.472;2024-02-26T10:16:41;5.50;99.90
8832;DHT22;4452;50.756;4.472;2024-02-26T10:19:07;5.60;99.90
8832;DHT22;4452;50.756;4.472;2024-02-26T10:21:33;5.60;99.90
8832;DHT22;4452;50.756;4.472;2024-02-26T10:23:58;6.00;99.90
8832;DHT22;4452;50.756;4.472;2024-02-26T10:26:24;5.60;99.90
8832;DHT22;4452;50.756;4.472;2024-02-26T10:28:50;6.00;99.90
8832;DHT22;4452;50.756;4.472;2024-02-26T10:31:16;5.70;99.90
8832;DHT22;4452;50.756;4.472;2024-02-26T10:33:43;5.90;99.90
8832;DHT22;4452;50.756;4.472;2024-02-26T10:36:09;5.90;99.90
8832;DHT22;4452;50.756;4.472;2024-02-26T10:38:36;5.60;99.90
8832;DHT22;4452;50.756;4.472;2024-02-26T10:41:03;5.50;99.90
8832;DHT22;4452;50.756;4.472;2024-02-26T10:43:29;5.50;99.90
8832;DHT22;4452;50.756;4.472;2024-02-26T10:45:55;5.90;99.90
8832;DHT22;4452;50.756;4.472;2024-02-26T10:48:21;5.50;99.90
8832;DHT22;4452;50.756;4.472;2024-02-26T10:50:47;5.80;99.90
8832;DHT22;4452;50.756;4.472;2024-02-26T10:53:17;5.70;99.90
8832;DHT22;4452;50.756;4.472;2024-02-26T10:55:52;5.60;99.90
8832;DHT22;4452;50.756;4.472;2024-02-26T10:58:19;5.50;99.90
8832;DHT22;4452;50.756;4.472;2024-02-26T11:00:46;5.40;99.90
8832;DHT22;4452;50.756;4.472;2024-02-26T11:03:14;5.50;99.90
8832;DHT22;4452;50.756;4.472;2024-02-26T11:05:44;5.50;99.90
8832;DHT22;4452;50.756;4.472;2024-02-26T11:08:11;5.40;99.90
8832;DHT22;4452;50.756;4.472;2024-02-26T11:10:37;5.70;99.90
8832;DHT22;4452;50.756;4.472;2024-02-26T11:13:05;5.60;99.90
8832;DHT22;4452;50.756;4.472;2024-02-26T11:15:32;5.90;99.90
8832;DHT22;4452;50.756;4.472;2024-02-26T11:17:59;5.40;99.90
8832;DHT22;4452;50.756;4.472;2024-02-26T11:20:28;5.40;99.90
8832;DHT22;4452;50.756;4.472;2024-02-26T11:22:55;5.50;99.90
8832;DHT22;4452;50.756;4.472;2024-02-26T11:25:21;5.70;99.90
8832;DHT22;4452;50.756;4.472;2024-02-26T11:27:51;5.40;99.90
8832;DHT22;4452;50.756;4.472;2024-02-26T11:30:18;5.50;99.90
8832;DHT22;4452;50.756;4.472;2024-02-26T11:32:47;5.70;99.90
8832;DHT22;4452;50.756;4.472;2024-02-26T11:35:13;5.40;99.90
8832;DHT22;4452;50.756;4.472;2024-02-26T11:37:41;5.90;99.90
8832;DHT22;4452;50.756;4.472;2024-02-26T11:40:11;5.30;99.90
8832;DHT22;4452;50.756;4.472;2024-02-26T11:42:44;5.40;99.90
8832;DHT22;4452;50.756;4.472;2024-02-26T11:48:04;5.30;99.90
8832;DHT22;4452;50.756;4.472;2024-02-26T11:50:35;5.40;99.90
8832;DHT22;4452;50.756;4.472;2024-02-26T11:53:32;5.40;99.90
8832;DHT22;4452;50.756;4.472;2024-02-26T11:58:50;5.40;99.90
8832;DHT22;4452;50.756;4.472;2024-02-26T12:01:44;5.30;99.90
8832;DHT22;4452;50.756;4.472;2024-02-26T12:04:27;5.30;99.90
8832;DHT22;4452;50.756;4.472;2024-02-26T12:07:00;5.40;99.90
8832;DHT22;4452;50.756;4.472;2024-02-26T12:09:40;5.40;99.90
8832;DHT22;4452;50.756;4.472;2024-02-26T12:12:08;5.40;99.90
8832;DHT22;4452;50.756;4.472;2024-02-26T12:17:04;5.40;99.90
8832;DHT22;4452;50.756;4.472;2024-02-26T12:19:34;5.60;99.90
8832;DHT22;4452;50.756;4.472;2024-02-26T12:22:00;5.50;99.90
8832;DHT22;4452;50.756;4.472;2024-02-26T12:24:26;5.60;99.90
8832;DHT22;4452;50.756;4.472;2024-02-26T12:26:51;5.30;99.90
8832;DHT22;4452;50.756;4.472;2024-02-26T12:29:17;5.40;99.90
8832;DHT22;4452;50.756;4.472;2024-02-26T12:31:43;5.40;99.90
8832;DHT22;4452;50.756;4.472;2024-02-26T12:34:09;5.70;99.90
8832;DHT22;4452;50.756;4.472;2024-02-26T12:36:35;5.60;99.90
8832;DHT22;4452;50.756;4.472;2024-02-26T12:39:05;5.30;99.90
8832;DHT22;4452;50.756;4.472;2024-02-26T12:41:35;5.30;99.90
8832;DHT22;4452;50.756;4.472;2024-02-26T12:44:01;5.40;99.90
8832;DHT22;4452;50.756;4.472;2024-02-26T12:46:27;5.30;99.90
8832;DHT22;4452;50.756;4.472;2024-02-26T12:48:55;5.60;99.90
8832;DHT22;4452;50.756;4.472;2024-02-26T12:51:24;5.20;99.90
8832;DHT22;4452;50.756;4.472;2024-02-26T12:53:50;5.20;99.90
8832;DHT22;4452;50.756;4.472;2024-02-26T12:56:18;5.20;99.90
8832;DHT22;4452;50.756;4.472;2024-02-26T12:58:44;5.70;99.90
8832;DHT22;4452;50.756;4.472;2024-02-26T13:01:15;5.50;99.90
8832;DHT22;4452;50.756;4.472;2024-02-26T13:03:41;5.70;99.90
8832;DHT22;4452;50.756;4.472;2024-02-26T13:06:07;5.30;99.90
8832;DHT22;4452;50.756;4.472;2024-02-26T13:08:33;5.20;99.90
8832;DHT22;4452;50.756;4.472;2024-02-26T13:10:59;5.20;99.90
8832;DHT22;4452;50.756;4.472;2024-02-26T13:13:30;5.30;99.90
8832;DHT22;4452;50.756;4.472;2024-02-26T13:16:06;5.20;99.90
8832;DHT22;4452;50.756;4.472;2024-02-26T13:18:35;5.30;99.90
8832;DHT22;4452;50.756;4.472;2024-02-26T13:21:24;5.30;99.90
8832;DHT22;4452;50.756;4.472;2024-02-26T13:23:53;5.20;99.90
8832;DHT22;4452;50.756;4.472;2024-02-26T13:26:23;5.20;99.90
8832;DHT22;4452;50.756;4.472;2024-02-26T13:29:03;5.20;99.90
8832;DHT22;4452;50.756;4.472;2024-02-26T13:31:31;5.10;99.90
8832;DHT22;4452;50.756;4.472;2024-02-26T13:34:03;5.20;99.90
8832;DHT22;4452;50.756;4.472;2024-02-26T13:36:31;5.20;99.90
8832;DHT22;4452;50.756;4.472;2024-02-26T13:39:04;5.30;99.90
8832;DHT22;4452;50.756;4.472;2024-02-26T13:41:32;5.20;99.90
8832;DHT22;4452;50.756;4.472;2024-02-26T13:43:58;5.30;99.90
8832;DHT22;4452;50.756;4.472;2024-02-26T13:46:24;5.20;99.90
8832;DHT22;4452;50.756;4.472;2024-02-26T13:48:49;5.20;99.90
8832;DHT22;4452;50.756;4.472;2024-02-26T13:51:15;5.50;99.90
8832;DHT22;4452;50.756;4.472;2024-02-26T13:53:42;5.60;99.90
8832;DHT22;4452;50.756;4.472;2024-02-26T13:56:08;5.70;99.90
8832;DHT22;4452;50.756;4.472;2024-02-26T13:58:35;5.20;99.90
8832;DHT22;4452;50.756;4.472;2024-02-26T14:01:01;5.20;99.90
8832;DHT22;4452;50.756;4.472;2024-02-26T14:03:28;5.20;99.90
8832;DHT22;4452;50.756;4.472;2024-02-26T14:05:54;5.20;99.90
8832;DHT22;4452;50.756;4.472;2024-02-26T14:08:20;5.00;99.90
8832;DHT22;4452;50.756;4.472;2024-02-26T14:10:46;5.50;99.90
8832;DHT22;4452;50.756;4.472;2024-02-26T14:13:12;5.10;99.90
8832;DHT22;4452;50.756;4.472;2024-02-26T14:15:37;5.10;99.90
8832;DHT22;4452;50.756;4.472;2024-02-26T14:18:04;5.10;99.90
8832;DHT22;4452;50.756;4.472;2024-02-26T14:20:30;5.20;99.90
8832;DHT22;4452;50.756;4.472;2024-02-26T14:22:56;5.10;99.90
8832;DHT22;4452;50.756;4.472;2024-02-26T14:25:22;5.20;99.90
8832;DHT22;4452;50.756;4.472;2024-02-26T14:27:48;5.40;99.90
8832;DHT22;4452;50.756;4.472;2024-02-26T14:30:14;5.40;99.90
8832;DHT22;4452;50.756;4.472;2024-02-26T14:32:40;5.10;99.90
8832;DHT22;4452;50.756;4.472;2024-02-26T14:35:07;5.10;99.90
8832;DHT22;4452;50.756;4.472;2024-02-26T14:37:35;5.10;99.90
8832;DHT22;4452;50.756;4.472;2024-02-26T14:40:01;5.10;99.90
8832;DHT22;4452;50.756;4.472;2024-02-26T14:42:29;5.30;99.90
8832;DHT22;4452;50.756;4.472;2024-02-26T14:44:54;5.20;99.90
8832;DHT22;4452;50.756;4.472;2024-02-26T14:47:20;5.60;99.90
8832;DHT22;4452;50.756;4.472;2024-02-26T14:49:46;5.20;99.90
8832;DHT22;4452;50.756;4.472;2024-02-26T14:52:14;5.40;99.90
8832;DHT22;4452;50.756;4.472;2024-02-26T14:54:40;5.10;99.90
8832;DHT22;4452;50.756;4.472;2024-02-26T14:57:06;5.20;99.90
8832;DHT22;4452;50.756;4.472;2024-02-26T14:59:33;5.10;99.90
8832;DHT22;4452;50.756;4.472;2024-02-26T15:02:00;5.50;99.90
8832;DHT22;4452;50.756;4.472;2024-02-26T15:04:26;5.40;99.90
8832;DHT22;4452;50.756;4.472;2024-02-26T15:06:53;5.10;99.90
8832;DHT22;4452;50.756;4.472;2024-02-26T15:09:21;5.10;99.90
8832;DHT22;4452;50.756;4.472;2024-02-26T15:11:49;5.10;99.90
8832;DHT22;4452;50.756;4.472;2024-02-26T15:14:16;5.10;99.90
8832;DHT22;4452;50.756;4.472;2024-02-26T15:16:44;5.10;99.90
8832;DHT22;4452;50.756;4.472;2024-02-26T15:19:12;5.10;99.90
8832;DHT22;4452;50.756;4.472;2024-02-26T15:21:45;5.60;99.90
8832;DHT22;4452;50.756;4.472;2024-02-26T15:24:11;5.20;99.90
8832;DHT22;4452;50.756;4.472;2024-02-26T15:26:38;5.10;99.90
8832;DHT22;4452;50.756;4.472;2024-02-26T15:29:04;5.10;99.90
8832;DHT22;4452;50.756;4.472;2024-02-26T15:31:30;5.10;99.90
8832;DHT22;4452;50.756;4.472;2024-02-26T15:33:56;5.30;99.90
8832;DHT22;4452;50.756;4.472;2024-02-26T15:36:22;5.10;99.90
8832;DHT22;4452;50.756;4.472;2024-02-26T15:38:48;5.10;99.90
8832;DHT22;4452;50.756;4.472;2024-02-26T15:41:14;5.10;99.90
8832;DHT22;4452;50.756;4.472;2024-02-26T15:43:40;5.30;99.90
8832;DHT22;4452;50.756;4.472;2024-02-26T15:46:06;5.20;99.90
8832;DHT22;4452;50.756;4.472;2024-02-26T15:48:32;5.50;99.90
8832;DHT22;4452;50.756;4.472;2024-02-26T15:50:58;5.30;99.90
8832;DHT22;4452;50.756;4.472;2024-02-26T15:53:25;5.60;99.90
8832;DHT22;4452;50.756;4.472;2024-02-26T15:55:52;5.10;99.90
8832;DHT22;4452;50.756;4.472;2024-02-26T15:58:19;5.10;99.90
8832;DHT22;4452;50.756;4.472;2024-02-26T16:00:47;5.10;99.90
8832;DHT22;4452;50.756;4.472;2024-02-26T16:03:15;5.10;99.90
8832;DHT22;4452;50.756;4.472;2024-02-26T16:05:43;5.20;99.90
8832;DHT22;4452;50.756;4.472;2024-02-26T16:08:17;5.10;99.90
8832;DHT22;4452;50.756;4.472;2024-02-26T16:10:46;5.10;99.90
8832;DHT22;4452;50.756;4.472;2024-02-26T16:13:12;5.20;99.90
8832;DHT22;4452;50.756;4.472;2024-02-26T16:15:44;5.20;99.90
8832;DHT22;4452;50.756;4.472;2024-02-26T16:18:11;5.10;99.90
8832;DHT22;4452;50.756;4.472;2024-02-26T16:20:37;5.50;99.90
8832;DHT22;4452;50.756;4.472;2024-02-26T16:23:04;5.20;99.90